Etusivu
METAR-TAF:

METAR-TAF

Lentoasemat :

New Century AirCenter

Olathe, Kansas, Yhdysvallat

Leveyspiiri: 38-49-28N, Pituuspiiri: 094-53-13W, korkeus merenpinnasta: 331 m

Tämänhetkinen sää

Tämä raportti tehtiin 1 tunti ja 5 minuuttia sitten, kello 14.53 UTC
Tuuli 9 kn etelästä/lounaasta
Lämpötila 28°C
Kosteus 66%
Ilmanpaine 1025 hPa
Näkyvyys: 16.1 km
selkeää

METAR: KIXD 201453Z 20009KT 10SM CLR 28/21 A3027 RMK AO2 SLP239 T02830211 51005

Aika: 10:58 (15:58 UTC)

Sääennuste

Tämä raportti tehtiin 4 tuntia ja 32 minuuttia sitten, kello 11.26 UTC
Ennuste voimassa 20. päivästä klo 12 UTC - 21. päivään klo 12 UTC
Tuuli 6 kn eri suunnista
Näkyvyys: 10 km
Hajanaisia pilviä 2000 ft:n korkeudessa
Hajonneita pilviä 5000 ft:n korkeudessa
From 20. päivästä klo 1300 UTC
Tuuli 7 kn etelästä
Näkyvyys: 10 km
Hajanaisia pilviä 10000 ft:n korkeudessa

TAF: KIXD 201126Z 2012/2112 VRB06KT P6SM SCT020 BKN050 FM201300 18007KT P6SM SCT100

Säähavainnot ja -ennusteet yli 4000 lentoasemalta (METAR- ja TAF-raportit).

Käytössä olevat sääasemat on merkitty karttaan keltaisilla ja punaisilla pisteillä.

Aseta hiiri pisteen päälle nähdäksesi sääaseman nimen.

Klikkaa sitten nähdäksesi säähavainnot ja -ennusteet.

Kartan vaihtaminen: klikkaa mustalla rastilla varustettuja vihreitä pisteitä, niin voit zoomata sisään; viivalla varustettua vihreää pistettä, niin voit zoomata ulos tai vihreitä nuolia, niin pääset viereisille kartoille.


METAR-TAF: